Time;durP1;ratioP1;P1;durP2;ratioP2;P2;SDS_P1;SDS_P2;PMS_P1;PMS_P2;Temp;Humidity;BMP_temperature;BMP_pressure;BME280_temperature;BME280_humidity;BME280_pressure;Samples;Min_cycle;Max_cycle;Signal;HPM_P1;HPM_P2
2022/05/12 00:01:36;;;;;;;0.00;0.00;;;20.60;65.60;;;;;;4142640;28;20093;-68
2022/05/12 00:03:58;;;;;;;0.00;0.00;;;20.60;65.60;;;;;;4156026;28;20168;-67
2022/05/12 00:06:23;;;;;;;0.00;0.00;;;20.70;65.60;;;;;;4156243;28;20096;-70
2022/05/12 00:08:46;;;;;;;0.00;0.00;;;20.70;65.80;;;;;;4156323;28;20068;-68
2022/05/12 00:11:13;;;;;;;0.00;0.00;;;20.70;65.90;;;;;;4155880;28;20046;-66
2022/05/12 00:13:42;;;;;;;0.00;0.00;;;20.60;65.80;;;;;;4156955;28;20431;-68
2022/05/12 00:16:08;;;;;;;0.00;0.00;;;20.40;66.20;;;;;;4156017;28;20068;-68
2022/05/12 00:18:35;;;;;;;0.00;0.00;;;20.30;66.80;;;;;;4170447;28;20120;-69
2022/05/12 00:20:58;;;;;;;0.00;0.00;;;20.30;67.00;;;;;;4156280;28;20103;-67
2022/05/12 00:23:26;;;;;;;0.00;0.00;;;20.40;67.10;;;;;;4142303;28;20041;-68
2022/05/12 00:26:04;;;;;;;0.00;0.00;;;20.40;67.00;;;;;;4170164;28;20475;-70
2022/05/12 00:28:29;;;;;;;0.00;0.00;;;20.40;67.00;;;;;;4156220;28;20053;-66
2022/05/12 00:31:04;;;;;;;0.00;0.00;;;20.50;67.30;;;;;;4155775;28;20484;-68
2022/05/12 00:33:31;;;;;;;0.00;0.00;;;20.50;67.40;;;;;;4156271;28;20045;-66
2022/05/12 00:36:06;;;;;;;0.00;0.00;;;20.50;67.70;;;;;;4156925;28;20469;-67
2022/05/12 00:38:37;;;;;;;0.00;0.00;;;20.60;67.90;;;;;;4143276;28;20439;-68
2022/05/12 00:40:59;;;;;;;0.00;0.00;;;20.50;68.00;;;;;;4155720;28;20092;-68
2022/05/12 00:43:43;;;;;;;0.00;0.00;;;20.60;68.50;;;;;;4170172;28;20800;-67
2022/05/12 00:46:08;;;;;;;0.00;0.00;;;20.60;68.10;;;;;;4170005;28;20121;-68
2022/05/12 00:48:32;;;;;;;0.00;0.00;;;20.50;67.80;;;;;;4155349;28;20156;-67
2022/05/12 00:50:59;;;;;;;0.00;0.00;;;20.50;67.70;;;;;;4155638;28;20484;-67
2022/05/12 00:53:22;;;;;;;0.00;0.00;;;20.50;67.90;;;;;;4155645;28;20052;-69
2022/05/12 00:55:54;;;;;;;0.00;0.00;;;20.40;68.10;;;;;;4156166;28;20053;-67
2022/05/12 00:58:40;;;;;;;0.00;0.00;;;20.50;68.20;;;;;;4159278;28;20333;-69
2022/05/12 01:01:10;;;;;;;;;;;20.40;68.20;;;;;;4156127;28;20117;-68
2022/05/12 01:03:47;;;;;;;0.00;0.00;;;20.40;68.20;;;;;;4157287;28;20282;-67
2022/05/12 01:06:18;;;;;;;0.00;0.00;;;20.30;68.20;;;;;;4167924;28;20116;-68
2022/05/12 01:08:45;;;;;;;0.00;0.00;;;20.40;68.40;;;;;;4167601;28;20063;-68
2022/05/12 01:11:19;;;;;;;0.00;0.00;;;20.40;68.50;;;;;;4154389;28;20053;-67
2022/05/12 01:13:50;;;;;;;0.00;0.00;;;20.40;68.40;;;;;;4167488;28;20107;-68
2022/05/12 01:16:38;;;;;;;0.00;0.00;;;20.40;68.40;;;;;;4140922;28;20053;-67
2022/05/12 01:19:07;;;;;;;0.00;0.00;;;20.40;68.20;;;;;;4167421;28;20136;-69
2022/05/12 01:21:34;;;;;;;0.00;0.00;;;20.40;68.30;;;;;;4167255;28;20080;-69
2022/05/12 01:24:00;;;;;;;0.00;0.00;;;20.40;68.20;;;;;;4166551;28;20391;-67
2022/05/12 01:26:25;;;;;;;0.00;0.00;;;20.40;68.10;;;;;;4152588;28;20057;-67
2022/05/12 01:28:49;;;;;;;0.00;0.00;;;20.30;68.40;;;;;;4138981;28;20042;-68
2022/05/12 01:31:25;;;;;;;0.00;0.00;;;20.30;68.50;;;;;;4154383;28;20045;-69
2022/05/12 01:33:52;;;;;;;0.00;0.00;;;20.20;68.60;;;;;;4152978;28;20496;-67
2022/05/12 01:36:15;;;;;;;0.00;0.00;;;20.20;68.60;;;;;;4152532;28;20054;-68
2022/05/12 01:38:39;;;;;;;0.00;0.00;;;20.20;68.60;;;;;;4152667;28;20062;-70
2022/05/12 01:41:01;;;;;;;0.00;0.00;;;20.20;68.90;;;;;;4152696;28;20380;-67
2022/05/12 01:43:28;;;;;;;0.00;0.00;;;20.20;68.90;;;;;;4138864;28;20123;-68
2022/05/12 01:45:50;;;;;;;0.00;0.00;;;20.10;68.50;;;;;;4138954;28;20089;-68
2022/05/12 01:48:17;;;;;;;0.00;0.00;;;20.00;68.50;;;;;;4152158;28;20068;-68
2022/05/12 01:50:43;;;;;;;0.00;0.00;;;19.90;68.90;;;;;;4139011;28;20054;-68
2022/05/12 01:53:09;;;;;;;0.00;0.00;;;19.90;69.30;;;;;;4152304;28;20049;-67
2022/05/12 01:55:31;;;;;;;0.00;0.00;;;19.80;69.80;;;;;;4152602;28;20381;-67
2022/05/12 01:57:53;;;;;;;0.00;0.00;;;19.80;69.90;;;;;;4125069;28;20046;-69
2022/05/12 02:00:21;;;;;;;0.00;0.00;;;19.80;70.40;;;;;;4152285;28;20045;-67
2022/05/12 02:02:43;;;;;;;0.00;0.00;;;19.90;69.70;;;;;;4138584;28;20046;-69
2022/05/12 02:05:15;;;;;;;0.00;0.00;;;19.90;69.70;;;;;;4152428;28;20046;-68
2022/05/12 02:07:41;;;;;;;0.00;0.00;;;19.90;69.70;;;;;;4135828;28;20112;-67
2022/05/12 02:10:06;;;;;;;0.00;0.00;;;19.70;70.10;;;;;;4122347;28;20042;-69
2022/05/12 02:12:28;;;;;;;0.00;0.00;;;19.70;70.50;;;;;;4122419;28;20050;-68
2022/05/12 02:14:50;;;;;;;0.00;0.00;;;19.70;70.50;;;;;;4135946;28;20089;-67
2022/05/12 02:17:12;;;;;;;0.00;0.00;;;19.70;70.50;;;;;;4135462;28;20054;-68
2022/05/12 02:19:34;;;;;;;0.00;0.00;;;19.70;70.80;;;;;;4108635;28;20047;-68
2022/05/12 02:21:58;;;;;;;0.00;0.00;;;19.70;70.50;;;;;;4135723;28;20043;-67
2022/05/12 02:24:24;;;;;;;0.00;0.00;;;19.70;70.60;;;;;;4135939;28;20062;-67
2022/05/12 02:26:48;;;;;;;0.00;0.00;;;19.70;70.80;;;;;;4135855;28;20100;-68
2022/05/12 02:29:13;;;;;;;0.00;0.00;;;19.60;70.90;;;;;;4135405;28;20050;-68
2022/05/12 02:31:40;;;;;;;0.00;0.00;;;19.50;70.80;;;;;;4122268;28;20094;-69
2022/05/12 02:34:02;;;;;;;0.00;0.00;;;19.40;71.30;;;;;;4135530;28;20085;-67
2022/05/12 02:36:29;;;;;;;0.00;0.00;;;19.30;71.50;;;;;;4135430;28;20050;-67
2022/05/12 02:38:51;;;;;;;0.00;0.00;;;19.30;71.50;;;;;;4122052;28;20474;-67
2022/05/12 02:41:13;;;;;;;0.00;0.00;;;19.40;71.50;;;;;;4135442;28;20439;-68
2022/05/12 02:43:37;;;;;;;0.00;0.00;;;19.40;71.30;;;;;;4135413;28;20557;-69
2022/05/12 02:46:07;;;;;;;0.00;0.00;;;19.40;71.00;;;;;;4135602;28;20576;-69
2022/05/12 02:48:36;;;;;;;0.00;0.00;;;19.40;71.10;;;;;;4135163;28;20401;-68
2022/05/12 02:51:06;;;;;;;0.00;0.00;;;19.50;71.00;;;;;;4135374;28;20450;-67
2022/05/12 02:53:33;;;;;;;0.00;0.00;;;19.50;70.90;;;;;;4121904;28;20068;-67
2022/05/12 02:55:55;;;;;;;0.00;0.00;;;19.50;70.70;;;;;;4135146;28;20156;-68
2022/05/12 02:58:17;;;;;;;0.00;0.00;;;19.50;71.10;;;;;;4121730;28;20462;-69
2022/05/12 03:00:45;;;;;;;0.00;0.00;;;19.40;71.50;;;;;;4135180;28;20050;-68
2022/05/12 03:03:10;;;;;;;0.00;0.00;;;19.40;71.40;;;;;;4135235;28;20074;-70
2022/05/12 03:05:38;;;;;;;0.00;0.00;;;19.50;71.30;;;;;;4135136;28;20086;-69
2022/05/12 03:08:04;;;;;;;0.00;0.00;;;19.40;71.80;;;;;;4148561;28;20120;-68
2022/05/12 03:10:31;;;;;;;0.00;0.00;;;19.20;72.10;;;;;;4135149;28;20030;-68
2022/05/12 03:12:55;;;;;;;0.00;0.00;;;19.10;72.50;;;;;;4134824;28;20050;-68
2022/05/12 03:15:23;;;;;;;0.00;0.00;;;19.10;72.60;;;;;;4121282;28;20047;-67
2022/05/12 03:17:48;;;;;;;0.00;0.00;;;19.20;72.50;;;;;;4121498;28;20086;-67
2022/05/12 03:20:16;;;;;;;0.00;0.00;;;19.30;72.50;;;;;;4134776;28;20084;-67
2022/05/12 03:22:42;;;;;;;0.00;0.00;;;19.30;72.50;;;;;;4121764;28;20049;-68
2022/05/12 03:25:08;;;;;;;0.00;0.00;;;19.20;72.30;;;;;;4121294;28;20050;-68
2022/05/12 03:27:32;;;;;;;0.00;0.00;;;19.20;72.60;;;;;;4148353;28;20050;-68
2022/05/12 03:29:57;;;;;;;0.00;0.00;;;18.90;73.20;;;;;;4120933;28;20047;-67
2022/05/12 03:32:19;;;;;;;0.00;0.00;;;18.60;74.10;;;;;;4134832;28;20038;-69
2022/05/12 03:34:41;;;;;;;0.00;0.00;;;18.50;74.50;;;;;;4121397;28;20065;-67
2022/05/12 03:37:03;;;;;;;0.00;0.00;;;18.60;74.40;;;;;;4134642;28;20121;-67
2022/05/12 03:39:25;;;;;;;0.00;0.00;;;18.60;74.00;;;;;;4134497;28;20081;-66
2022/05/12 03:41:50;;;;;;;0.00;0.00;;;18.70;73.90;;;;;;4135013;28;20057;-67
2022/05/12 03:46:57;;;;;;;0.00;0.00;;;18.70;74.10;;;;;;4134464;28;20108;-68
2022/05/12 03:49:24;;;;;;;0.00;0.00;;;18.70;74.60;;;;;;4115845;28;20047;-66
2022/05/12 03:51:47;;;;;;;0.00;0.00;;;18.50;75.10;;;;;;4115931;28;20066;-67
2022/05/12 03:54:11;;;;;;;0.00;0.00;;;18.40;75.60;;;;;;4115857;28;20053;-65
2022/05/12 03:56:33;;;;;;;0.00;0.00;;;18.30;76.00;;;;;;4089567;28;20055;-67
2022/05/12 03:59:01;;;;;;;0.00;0.00;;;18.40;75.80;;;;;;4115894;28;20054;-67
2022/05/12 04:01:22;;;;;;;0.00;0.00;;;18.60;75.70;;;;;;4115985;28;20047;-69
2022/05/12 04:03:45;;;;;;;0.00;0.00;;;18.70;75.30;;;;;;4115857;28;20051;-67
2022/05/12 04:06:12;;;;;;;0.00;0.00;;;18.80;75.20;;;;;;4115921;28;20054;-68
2022/05/12 04:08:36;;;;;;;0.00;0.00;;;18.80;75.30;;;;;;4115960;28;20047;-66
2022/05/12 04:11:07;;;;;;;0.00;0.00;;;18.90;75.40;;;;;;4116141;28;20530;-67
2022/05/12 04:13:29;;;;;;;0.00;0.00;;;18.80;75.30;;;;;;4102645;28;20063;-66
2022/05/12 04:15:56;;;;;;;0.00;0.00;;;18.80;75.50;;;;;;4115781;28;20722;-67
2022/05/12 04:18:21;;;;;;;0.00;0.00;;;18.80;75.60;;;;;;4115763;28;20073;-67
2022/05/12 04:20:45;;;;;;;0.00;0.00;;;18.80;75.90;;;;;;4102731;28;20046;-66
2022/05/12 04:23:12;;;;;;;0.00;0.00;;;18.80;75.50;;;;;;4102638;28;20559;-65
2022/05/12 04:25:39;;;;;;;0.00;0.00;;;18.70;75.70;;;;;;4116005;28;20055;-66
2022/05/12 04:28:07;;;;;;;0.00;0.00;;;18.80;75.70;;;;;;4102281;28;20051;-69
2022/05/12 04:30:32;;;;;;;0.00;0.00;;;18.90;75.80;;;;;;4129180;28;20113;-65
2022/05/12 04:32:54;;;;;;;0.00;0.00;;;18.90;75.70;;;;;;4102400;28;20086;-68
2022/05/12 04:35:18;;;;;;;0.00;0.00;;;18.90;76.20;;;;;;4102577;28;20492;-65
2022/05/12 04:38:02;;;;;;;0.00;0.00;;;18.80;75.70;;;;;;4089023;28;20087;-66
2022/05/12 04:40:26;;;;;;;0.00;0.00;;;18.60;76.20;;;;;;4102258;28;20059;-68
2022/05/12 04:42:51;;;;;;;0.00;0.00;;;18.60;76.60;;;;;;4118753;28;20054;-68
2022/05/12 04:45:20;;;;;;;0.00;0.00;;;18.80;76.60;;;;;;4105326;28;20433;-66
2022/05/12 04:47:45;;;;;;;0.00;0.00;;;18.80;77.30;;;;;;4109083;28;20058;-67
2022/05/12 04:50:14;;;;;;;0.00;0.00;;;18.70;78.30;;;;;;4134833;28;20046;-64
2022/05/12 04:52:38;;;;;;;0.00;0.00;;;18.50;79.50;;;;;;4121711;28;20050;-65
2022/05/12 04:55:06;;;;;;;0.00;0.00;;;18.50;80.00;;;;;;4120980;28;20062;-65
2022/05/12 04:57:45;;;;;;;0.00;0.00;;;18.70;80.10;;;;;;4122034;28;20050;-65
2022/05/12 05:00:10;;;;;;;0.00;0.00;;;18.80;80.90;;;;;;4134623;28;20472;-68
2022/05/12 05:02:34;;;;;;;0.00;0.00;;;18.90;81.60;;;;;;4120854;28;20055;-67
2022/05/12 05:04:59;;;;;;;0.00;0.00;;;18.90;82.20;;;;;;4134518;28;20106;-67
2022/05/12 05:07:26;;;;;;;0.00;0.00;;;19.00;82.70;;;;;;4134711;28;20125;-65
2022/05/12 05:09:48;;;;;;;0.00;0.00;;;18.90;83.80;;;;;;4148136;28;20735;-65
2022/05/12 05:12:10;;;;;;;0.00;0.00;;;18.90;83.80;;;;;;4134310;28;20421;-70
2022/05/12 05:14:32;;;;;;;0.00;0.00;;;18.80;84.40;;;;;;4134322;28;20061;-66
2022/05/12 05:16:54;;;;;;;0.00;0.00;;;18.60;85.30;;;;;;4134584;28;20042;-71
2022/05/12 05:19:16;;;;;;;0.00;0.00;;;18.50;85.90;;;;;;4134359;28;20085;-69
2022/05/12 05:21:43;;;;;;;0.00;0.00;;;18.50;86.50;;;;;;4134375;28;20608;-66
2022/05/12 05:24:05;;;;;;;0.00;0.00;;;18.50;86.70;;;;;;4134359;28;20042;-67
2022/05/12 05:26:32;;;;;;;0.00;0.00;;;18.50;86.70;;;;;;4134252;28;20046;-68
2022/05/12 05:28:54;;;;;;;0.00;0.00;;;18.70;86.40;;;;;;4120641;28;20054;-68
2022/05/12 05:31:19;;;;;;;0.00;0.00;;;18.70;86.30;;;;;;4134063;28;20050;-67
2022/05/12 05:33:43;;;;;;;0.00;0.00;;;18.80;86.10;;;;;;4133922;28;20057;-67
2022/05/12 05:36:05;;;;;;;0.00;0.00;;;18.90;86.00;;;;;;4147626;28;20112;-67
2022/05/12 05:38:27;;;;;;;0.00;0.00;;;19.00;85.40;;;;;;4134178;28;20125;-66
2022/05/12 05:40:49;;;;;;;0.00;0.00;;;19.10;85.10;;;;;;4134027;28;20362;-67
2022/05/12 05:43:16;;;;;;;0.00;0.00;;;19.20;84.60;;;;;;4133804;28;20062;-66
2022/05/12 05:45:38;;;;;;;0.00;0.00;;;19.30;84.40;;;;;;4133816;28;20555;-66
2022/05/12 05:48:04;;;;;;;0.00;0.00;;;19.30;82.10;;;;;;4133528;28;20054;-70
2022/05/12 05:53:23;;;;;;;0.00;0.00;;;19.40;81.50;;;;;;4133650;28;20088;-67
2022/05/12 05:53:25;;;;;;;0.00;0.00;;;19.60;81.20;;;;;;4133348;28;20132;-68
2022/05/12 05:55:47;;;;;;;0.00;0.00;;;19.70;79.90;;;;;;4147195;28;20084;-66
2022/05/12 05:58:12;;;;;;;0.00;0.00;;;19.80;78.80;;;;;;4120449;28;20046;-68
2022/05/12 06:00:39;;;;;;;0.00;0.00;;;19.90;77.90;;;;;;4120145;28;20065;-67
2022/05/12 06:03:05;;;;;;;0.00;0.00;;;19.90;77.20;;;;;;4133638;28;20060;-68
2022/05/12 06:05:28;;;;;;;0.00;0.00;;;20.00;76.70;;;;;;4120206;28;20072;-66
2022/05/12 06:07:53;;;;;;;0.00;0.00;;;20.00;77.50;;;;;;4133437;28;20050;-66
2022/05/12 06:10:15;;;;;;;0.00;0.00;;;20.10;78.30;;;;;;4133426;28;20067;-69
2022/05/12 06:12:41;;;;;;;0.00;0.00;;;20.00;78.80;;;;;;4133507;28;20365;-68
2022/05/12 06:15:03;;;;;;;0.00;0.00;;;20.10;78.40;;;;;;4133439;28;20037;-65
2022/05/12 06:17:26;;;;;;;0.00;0.00;;;20.20;77.50;;;;;;4119776;28;20062;-66
2022/05/12 06:19:51;;;;;;;0.00;0.00;;;20.30;77.00;;;;;;4133191;28;20085;-68
2022/05/12 06:22:13;;;;;;;0.00;0.00;;;20.30;77.20;;;;;;4120010;28;20050;-67
2022/05/12 06:24:35;;;;;;;0.00;0.00;;;20.30;77.60;;;;;;4133175;28;20046;-67
2022/05/12 06:27:01;;;;;;;0.00;0.00;;;20.30;78.30;;;;;;4133006;28;20059;-68
2022/05/12 06:29:23;;;;;;;0.00;0.00;;;20.30;79.00;;;;;;4119246;28;20053;-67
2022/05/12 06:31:47;;;;;;;0.00;0.00;;;20.40;79.30;;;;;;4119400;28;20106;-66
2022/05/12 06:34:10;;;;;;;0.00;0.00;;;20.50;79.70;;;;;;4133303;28;20054;-68
2022/05/12 06:36:32;;;;;;;0.00;0.00;;;20.60;80.00;;;;;;4119418;28;20051;-67
2022/05/12 06:38:56;;;;;;;0.00;0.00;;;20.60;79.80;;;;;;4132942;28;20136;-65
2022/05/12 06:41:21;;;;;;;0.00;0.00;;;20.70;79.50;;;;;;4132984;28;20058;-67
2022/05/12 06:43:46;;;;;;;0.00;0.00;;;20.70;79.40;;;;;;4132707;28;20046;-68
2022/05/12 06:46:17;;;;;;;0.00;0.00;;;20.80;79.10;;;;;;4132516;28;20120;-69
2022/05/12 06:48:42;;;;;;;0.00;0.00;;;20.90;79.10;;;;;;4132215;28;20133;-69
2022/05/12 06:51:04;;;;;;;0.00;0.00;;;21.00;76.90;;;;;;4132785;28;20477;-66
2022/05/12 06:53:26;;;;;;;0.00;0.00;;;21.10;74.90;;;;;;4119264;28;20439;-69
2022/05/12 06:55:51;;;;;;;0.00;0.00;;;21.20;73.10;;;;;;4132532;28;20058;-69
2022/05/12 06:58:18;;;;;;;0.00;0.00;;;21.20;71.70;;;;;;4132401;28;20096;-69
2022/05/12 07:00:40;;;;;;;0.00;0.00;;;21.30;69.40;;;;;;4132446;28;20073;-68
2022/05/12 07:03:04;;;;;;;0.00;0.00;;;21.50;71.10;;;;;;4119112;28;20054;-68
2022/05/12 07:05:32;;;;;;;0.00;0.00;;;21.50;71.90;;;;;;4132134;28;20089;-68
2022/05/12 07:07:54;;;;;;;0.00;0.00;;;21.60;72.40;;;;;;4119172;28;20078;-66
2022/05/12 07:10:21;;;;;;;0.00;0.00;;;21.80;71.40;;;;;;4119263;28;20126;-67
2022/05/12 07:12:46;;;;;;;0.00;0.00;;;21.90;69.00;;;;;;4118484;28;20042;-67
2022/05/12 07:15:09;;;;;;;0.00;0.00;;;21.80;68.30;;;;;;4118504;28;20363;-67
2022/05/12 07:17:43;;;;;;;0.00;0.00;;;21.70;68.30;;;;;;4131900;28;20050;-66
2022/05/12 07:28:14;;;;;;;0.00;0.00;;;21.90;64.80;;;;;;4132139;28;20046;-67
2022/05/12 07:31:00;;;;;;;0.00;0.00;;;22.10;63.20;;;;;;4118797;28;20453;-66
2022/05/12 07:33:20;;;;;;;0.00;0.00;;;22.20;62.10;;;;;;4132468;28;20100;-68
2022/05/12 07:35:44;;;;;;;0.00;0.00;;;22.30;61.60;;;;;;4132284;28;20121;-67
2022/05/12 07:38:06;;;;;;;0.00;0.00;;;22.40;61.40;;;;;;4132520;28;20054;-65
2022/05/12 07:40:29;;;;;;;0.00;0.00;;;22.50;60.90;;;;;;4132192;28;20054;-68
2022/05/12 07:42:53;;;;;;;0.00;0.00;;;22.40;60.70;;;;;;4132295;28;20492;-69
2022/05/12 07:45:21;;;;;;;0.00;0.00;;;22.30;61.90;;;;;;4132891;28;20046;-69
2022/05/12 07:47:43;;;;;;;0.00;0.00;;;22.60;60.70;;;;;;4133287;28;20054;-67
2022/05/12 07:50:05;;;;;;;0.00;0.00;;;22.70;59.20;;;;;;4132064;28;20104;-66
2022/05/12 07:52:29;;;;;;;0.00;0.00;;;22.80;58.70;;;;;;4132149;28;20121;-69
2022/05/12 07:54:53;;;;;;;0.00;0.00;;;23.00;58.50;;;;;;4132042;28;20048;-66
2022/05/12 07:57:25;;;;;;;0.00;0.00;;;23.10;57.60;;;;;;4131805;28;20042;-67
2022/05/12 07:59:47;;;;;;;0.00;0.00;;;23.10;57.70;;;;;;4145580;28;20054;-65
2022/05/12 08:02:16;;;;;;;0.00;0.00;;;23.20;57.40;;;;;;4144971;28;20084;-66
2022/05/12 08:04:39;;;;;;;0.00;0.00;;;23.20;57.10;;;;;;4118355;28;20055;-68
2022/05/12 08:07:01;;;;;;;0.00;0.00;;;23.20;56.80;;;;;;4118649;28;20042;-67
2022/05/12 08:09:23;;;;;;;0.00;0.00;;;23.40;56.80;;;;;;4118280;28;20065;-67
2022/05/12 08:11:45;;;;;;;0.00;0.00;;;23.60;56.80;;;;;;4132285;28;20512;-66
2022/05/12 08:14:10;;;;;;;0.00;0.00;;;23.70;55.50;;;;;;4131792;28;20038;-67
2022/05/12 08:16:33;;;;;;;0.00;0.00;;;23.70;55.10;;;;;;4121464;28;20536;-67
2022/05/12 08:18:58;;;;;;;0.00;0.00;;;23.80;54.60;;;;;;4134470;28;20046;-67
2022/05/12 08:21:25;;;;;;;0.00;0.00;;;24.00;54.30;;;;;;4134742;28;20050;-67
2022/05/12 08:23:49;;;;;;;0.00;0.00;;;24.20;54.10;;;;;;4135029;28;20077;-66
2022/05/12 08:26:14;;;;;;;0.00;0.00;;;24.30;52.60;;;;;;4135182;28;20489;-67
2022/05/12 08:28:40;;;;;;;0.00;0.00;;;24.20;51.40;;;;;;4135148;28;20064;-66
2022/05/12 08:31:07;;;;;;;0.00;0.00;;;24.30;52.30;;;;;;4135299;28;20054;-69
2022/05/12 08:33:31;;;;;;;0.00;0.00;;;24.50;51.80;;;;;;4121934;28;20050;-66
2022/05/12 08:35:55;;;;;;;0.00;0.00;;;24.60;51.80;;;;;;4135091;28;20046;-68
2022/05/12 08:38:19;;;;;;;0.00;0.00;;;24.70;52.90;;;;;;4121148;28;20390;-67
2022/05/12 08:40:49;;;;;;;0.00;0.00;;;24.70;53.70;;;;;;4120755;28;20055;-69
2022/05/12 08:43:21;;;;;;;0.00;0.00;;;24.90;53.70;;;;;;4134231;28;20046;-67
2022/05/12 08:45:47;;;;;;;0.00;0.00;;;25.10;52.40;;;;;;4134087;28;20049;-68
2022/05/12 08:48:14;;;;;;;0.00;0.00;;;25.20;52.60;;;;;;4133763;28;20148;-69
2022/05/12 08:50:40;;;;;;;0.00;0.00;;;25.30;52.30;;;;;;4133647;28;20446;-67
2022/05/12 08:53:09;;;;;;;0.00;0.00;;;25.40;52.10;;;;;;4133808;28;20047;-66
2022/05/12 08:55:51;;;;;;;0.00;0.00;;;25.20;50.60;;;;;;4133939;28;20469;-68
2022/05/12 08:58:27;;;;;;;0.00;0.00;;;25.10;50.00;;;;;;4120539;28;20385;-67
2022/05/12 09:00:59;;;;;;;0.00;0.00;;;25.10;49.60;;;;;;4148045;28;20655;-66
2022/05/12 09:03:50;;;;;;;0.00;0.00;;;25.20;50.50;;;;;;4137722;28;20096;-67
2022/05/12 09:06:46;;;;;;;0.00;0.00;;;25.30;49.70;;;;;;4121407;28;20050;-67
2022/05/12 09:09:19;;;;;;;0.00;0.00;;;25.40;49.60;;;;;;4120501;28;20062;-66
2022/05/12 09:12:12;;;;;;;0.00;0.00;;;25.30;49.20;;;;;;4107731;28;20078;-67
2022/05/12 09:14:36;;;;;;;0.00;0.00;;;25.40;47.50;;;;;;4148076;28;20357;-66
2022/05/12 09:17:06;;;;;;;0.00;0.00;;;25.20;48.60;;;;;;4134369;28;20370;-68
2022/05/12 09:19:33;;;;;;;0.00;0.00;;;25.30;49.00;;;;;;4134427;28;20479;-67
2022/05/12 09:21:56;;;;;;;0.00;0.00;;;25.40;49.00;;;;;;4134335;28;20440;-67
2022/05/12 09:24:22;;;;;;;0.00;0.00;;;25.30;48.40;;;;;;4133726;28;20490;-69
2022/05/12 09:26:51;;;;;;;0.00;0.00;;;25.40;48.40;;;;;;4133365;28;20113;-67
2022/05/12 09:29:31;;;;;;;0.00;0.00;;;25.50;48.70;;;;;;4134048;28;20551;-67
2022/05/12 09:32:20;;;;;;;0.00;0.00;;;25.80;49.10;;;;;;4134069;28;20078;-67
2022/05/12 09:35:04;;;;;;;0.00;0.00;;;25.90;48.50;;;;;;4134067;28;20065;-69
2022/05/12 09:37:28;;;;;;;0.00;0.00;;;26.00;48.20;;;;;;4147829;28;20050;-66
2022/05/12 09:39:57;;;;;;;0.00;0.00;;;26.00;48.20;;;;;;4120718;28;20055;-69
2022/05/12 09:42:28;;;;;;;0.00;0.00;;;25.90;47.90;;;;;;4133633;28;20042;-67
2022/05/12 09:45:06;;;;;;;0.00;0.00;;;25.90;47.30;;;;;;4134028;28;20061;-66
2022/05/12 09:47:33;;;;;;;0.00;0.00;;;25.80;47.80;;;;;;4109007;28;20488;-67
2022/05/12 09:50:16;;;;;;;0.00;0.00;;;25.60;47.50;;;;;;4136696;28;20052;-67
2022/05/12 09:52:47;;;;;;;0.00;0.00;;;25.70;48.40;;;;;;4136404;28;20481;-70
2022/05/12 09:55:17;;;;;;;0.00;0.00;;;25.70;48.20;;;;;;4122919;28;20101;-67
2022/05/12 09:58:14;;;;;;;0.00;0.00;;;25.80;48.80;;;;;;4136271;28;20055;-66
2022/05/12 10:00:48;;;;;;;0.00;0.00;;;26.10;47.30;;;;;;4130043;28;20054;-66
2022/05/12 10:09:20;;;;;;;0.00;0.00;;;26.10;46.20;;;;;;4136057;28;20038;-67
2022/05/12 10:12:02;;;;;;;0.00;0.00;;;25.90;47.20;;;;;;4135592;28;20183;-66
2022/05/12 10:14:49;;;;;;;0.00;0.00;;;26.00;47.10;;;;;;4122471;28;20104;-66
2022/05/12 10:17:50;;;;;;;0.00;0.00;;;26.30;46.90;;;;;;4135875;28;20104;-67
2022/05/12 10:20:19;;;;;;;0.00;0.00;;;26.10;47.90;;;;;;4135843;28;20097;-65
2022/05/12 10:22:55;;;;;;;0.00;0.00;;;26.10;48.50;;;;;;4122838;28;20086;-66
2022/05/12 10:25:39;;;;;;;0.00;0.00;;;26.20;47.50;;;;;;4136438;28;20095;-66
2022/05/12 10:28:25;;;;;;;0.00;0.00;;;26.30;47.50;;;;;;4136786;28;20750;-67
2022/05/12 10:31:05;;;;;;;0.00;0.00;;;26.10;46.10;;;;;;4123581;28;20047;-66
2022/05/12 10:33:42;;;;;;;0.00;0.00;;;25.90;46.00;;;;;;4137695;28;20046;-65
2022/05/12 10:36:30;;;;;;;0.00;0.00;;;25.90;45.50;;;;;;4136619;28;20035;-68
2022/05/12 10:39:35;;;;;;;0.00;0.00;;;26.00;47.10;;;;;;4136552;28;20097;-64
2022/05/12 10:42:07;;;;;;;0.00;0.00;;;26.20;47.20;;;;;;4130301;28;20069;-64
2022/05/12 10:44:49;;;;;;;0.00;0.00;;;26.20;47.50;;;;;;4121944;28;20058;-65
2022/05/12 10:47:29;;;;;;;0.00;0.00;;;26.20;47.50;;;;;;4136126;28;20117;-66
2022/05/12 10:50:08;;;;;;;0.00;0.00;;;26.30;47.00;;;;;;4136110;28;20050;-66
2022/05/12 10:53:09;;;;;;;0.00;0.00;;;26.30;46.90;;;;;;4136303;28;20046;-65
2022/05/12 10:55:44;;;;;;;0.00;0.00;;;26.30;45.80;;;;;;4102166;28;20118;-65
2022/05/12 10:58:34;;;;;;;0.00;0.00;;;26.30;45.60;;;;;;4103655;28;20053;-65
2022/05/12 11:01:23;;;;;;;0.00;0.00;;;26.20;45.50;;;;;;4102888;28;20359;-65
2022/05/12 11:03:59;;;;;;;0.00;0.00;;;26.10;46.60;;;;;;4102230;28;20067;-65
2022/05/12 11:06:29;;;;;;;0.00;0.00;;;26.20;45.40;;;;;;4102051;28;20063;-65
2022/05/12 11:09:07;;;;;;;0.00;0.00;;;26.10;45.30;;;;;;4088888;28;20055;-65
2022/05/12 11:11:39;;;;;;;0.00;0.00;;;26.10;45.80;;;;;;4102017;28;20593;-67
2022/05/12 11:14:33;;;;;;;0.00;0.00;;;26.00;46.00;;;;;;4101836;28;20059;-65
2022/05/12 11:17:24;;;;;;;0.00;0.00;;;25.80;45.90;;;;;;4102139;28;20466;-65
2022/05/12 11:19:57;;;;;;;0.00;0.00;;;25.80;46.90;;;;;;4088852;28;20134;-65
2022/05/12 11:22:45;;;;;;;0.00;0.00;;;25.90;46.50;;;;;;4102289;28;20086;-66
2022/05/12 11:25:18;;;;;;;0.00;0.00;;;26.10;46.60;;;;;;4102183;28;20050;-64
2022/05/12 11:27:51;;;;;;;0.00;0.00;;;26.30;46.60;;;;;;4121145;28;20059;-64
2022/05/12 11:30:19;;;;;;;0.00;0.00;;;26.20;46.40;;;;;;4121313;28;20051;-64
2022/05/12 11:32:49;;;;;;;0.00;0.00;;;26.10;46.10;;;;;;4134770;28;20078;-65
2022/05/12 11:35:28;;;;;;;0.00;0.00;;;26.00;46.00;;;;;;4120667;28;20126;-65
2022/05/12 11:38:03;;;;;;;0.00;0.00;;;25.90;46.00;;;;;;4121435;28;20082;-66
2022/05/12 11:40:44;;;;;;;0.00;0.00;;;25.90;45.90;;;;;;4134419;28;20096;-67
2022/05/12 11:46:20;;;;;;;0.00;0.00;;;25.70;45.70;;;;;;4134700;28;20086;-64
2022/05/12 11:49:00;;;;;;;0.00;0.00;;;25.70;46.10;;;;;;4134435;28;20068;-65
2022/05/12 11:51:40;;;;;;;0.00;0.00;;;25.70;46.20;;;;;;4134241;28;20040;-65
2022/05/12 11:54:12;;;;;;;0.00;0.00;;;25.70;45.70;;;;;;4120994;28;20056;-66
2022/05/12 11:56:45;;;;;;;0.00;0.00;;;25.80;45.80;;;;;;4134865;28;20473;-66
2022/05/12 11:59:40;;;;;;;0.00;0.00;;;25.90;47.00;;;;;;4134934;28;20129;-66
2022/05/12 12:02:06;;;;;;;0.00;0.00;;;26.30;47.60;;;;;;4119161;28;20057;-67
2022/05/12 12:04:37;;;;;;;0.00;0.00;;;26.50;47.20;;;;;;4121350;28;20090;-65
2022/05/12 12:07:15;;;;;;;0.00;0.00;;;26.70;46.80;;;;;;4121017;28;20142;-64
2022/05/12 12:09:37;;;;;;;0.00;0.00;;;26.60;46.50;;;;;;4134396;28;20046;-64
2022/05/12 12:12:03;;;;;;;0.00;0.00;;;26.70;46.60;;;;;;4134771;28;20104;-65
2022/05/12 12:14:48;;;;;;;0.00;0.00;;;26.70;47.40;;;;;;4134366;28;20043;-64
2022/05/12 12:17:25;;;;;;;0.00;0.00;;;26.90;47.40;;;;;;4134313;28;20043;-64
2022/05/12 12:19:53;;;;;;;0.00;0.00;;;26.90;47.30;;;;;;4134225;28;20157;-64
2022/05/12 12:22:23;;;;;;;0.00;0.00;;;26.90;46.60;;;;;;4121473;28;20050;-66
2022/05/12 12:24:56;;;;;;;0.00;0.00;;;27.10;46.70;;;;;;4121113;28;20384;-65
2022/05/12 12:27:30;;;;;;;0.00;0.00;;;27.30;47.30;;;;;;4134567;28;20054;-65
2022/05/12 12:29:52;;;;;;;0.00;0.00;;;27.40;46.70;;;;;;4134225;28;20082;-64
2022/05/12 12:32:31;;;;;;;0.00;0.00;;;27.30;46.00;;;;;;4134310;28;20042;-64
2022/05/12 12:34:56;;;;;;;0.00;0.00;;;27.10;46.20;;;;;;4120909;28;20046;-65
2022/05/12 12:37:40;;;;;;;0.00;0.00;;;27.00;46.70;;;;;;4147976;28;20081;-64
2022/05/12 12:40:34;;;;;;;0.00;0.00;;;27.00;46.70;;;;;;4147760;28;20089;-65
2022/05/12 12:42:57;;;;;;;0.00;0.00;;;26.90;45.50;;;;;;4134398;28;20172;-65
2022/05/12 12:45:23;;;;;;;0.00;0.00;;;26.80;46.40;;;;;;4133631;28;20065;-65
2022/05/12 12:47:55;;;;;;;0.00;0.00;;;26.90;47.10;;;;;;4134139;28;20069;-65
2022/05/12 12:50:42;;;;;;;0.00;0.00;;;27.00;45.90;;;;;;4133893;28;20121;-63
2022/05/12 12:53:06;;;;;;;0.00;0.00;;;27.00;47.00;;;;;;4134307;28;20509;-65
2022/05/12 12:58:30;;;;;;;0.00;0.00;;;27.10;46.50;;;;;;4134221;28;20046;-64
2022/05/12 13:01:02;;;;;;;0.00;0.00;;;27.10;46.50;;;;;;4133735;28;20065;-64
2022/05/12 13:03:30;;;;;;;0.00;0.00;;;27.00;46.50;;;;;;4136322;28;20105;-64
2022/05/12 13:05:51;;;;;;;0.00;0.00;;;27.00;47.10;;;;;;4137119;28;20413;-65
2022/05/12 13:08:31;;;;;;;0.00;0.00;;;26.90;47.40;;;;;;4137266;28;20544;-66
2022/05/12 13:10:59;;;;;;;0.00;0.00;;;26.90;46.90;;;;;;4136843;28;20090;-66
2022/05/12 13:13:23;;;;;;;0.00;0.00;;;27.00;46.70;;;;;;4123559;28;20053;-65
2022/05/12 13:16:03;;;;;;;0.00;0.00;;;27.10;46.90;;;;;;4123228;28;20078;-65
2022/05/12 13:18:32;;;;;;;0.00;0.00;;;27.20;45.10;;;;;;4150517;28;20046;-65
2022/05/12 13:20:54;;;;;;;0.00;0.00;;;27.30;45.90;;;;;;4137188;28;20053;-64